Time;durP1;ratioP1;P1;durP2;ratioP2;P2;SDS_P1;SDS_P2;PMS_P1;PMS_P2;Temp;Humidity;BMP_temperature;BMP_pressure;BME280_temperature;BME280_humidity;BME280_pressure;Samples;Min_cycle;Max_cycle;Signal;HPM_P1;HPM_P2
2023/06/04 00:02:04;;;;;;;;;;;14.40;99.90;;;;;;5021293;28;19929;-75
2023/06/04 00:04:32;;;;;;;;;;;14.30;99.90;;;;;;5023522;28;19964;-75
2023/06/04 00:06:59;;;;;;;;;;;14.30;99.90;;;;;;5007728;28;19972;-75
2023/06/04 00:09:25;;;;;;;;;;;14.20;99.90;;;;;;5006173;28;19977;-75
2023/06/04 00:11:52;;;;;;;;;;;14.30;99.90;;;;;;5004876;28;19993;-75
2023/06/04 00:14:19;;;;;;;;;;;14.30;99.90;;;;;;5024531;28;19979;-75
2023/06/04 00:16:45;;;;;;;;;;;14.30;99.90;;;;;;5007503;28;19929;-75
2023/06/04 00:19:12;;;;;;;;;;;14.30;99.90;;;;;;5010850;28;20412;-75
2023/06/04 00:21:41;;;;;;;;;;;14.30;99.90;;;;;;5007791;28;19925;-75
2023/06/04 00:24:08;;;;;;;;;;;14.30;99.90;;;;;;5021087;28;19933;-76
2023/06/04 00:26:35;;;;;;;;;;;14.20;99.90;;;;;;5008891;28;19926;-75
2023/06/04 00:29:01;;;;;;;;;;;14.30;99.90;;;;;;5011284;28;19929;-75
2023/06/04 00:31:28;;;;;;;;;;;14.20;99.90;;;;;;5001088;28;19925;-75
2023/06/04 00:33:55;;;;;;;;;;;14.20;99.90;;;;;;5010209;28;20396;-75
2023/06/04 00:36:22;;;;;;;;;;;14.20;99.90;;;;;;5006160;28;19928;-75
2023/06/04 00:38:50;;;;;;;;;;;14.20;99.90;;;;;;5009429;28;19940;-74
2023/06/04 00:41:17;;;;;;;;;;;14.10;99.90;;;;;;5011642;28;19925;-75
2023/06/04 00:43:45;;;;;;;;;;;14.10;99.90;;;;;;5027548;28;20392;-75
2023/06/04 00:46:17;;;;;;;;;;;14.10;99.90;;;;;;5010969;28;20028;-75
2023/06/04 00:48:44;;;;;;;;;;;14.10;99.90;;;;;;5006542;28;20447;-75
2023/06/04 00:51:11;;;;;;;;;;;14.10;99.90;;;;;;5010360;28;19925;-75
2023/06/04 00:53:38;;;;;;;;;;;14.00;99.90;;;;;;5002724;28;19926;-75
2023/06/04 00:56:07;;;;;;;;;;;14.00;99.90;;;;;;5009738;28;19975;-75
2023/06/04 00:58:38;;;;;;;;;;;13.90;99.90;;;;;;5011760;28;19947;-75
2023/06/04 01:01:05;;;;;;;;;;;13.90;99.90;;;;;;5008110;28;20343;-75
2023/06/04 01:03:34;;;;;;;;;;;13.90;99.90;;;;;;5008915;28;19940;-74
2023/06/04 01:06:09;;;;;;;;;;;13.80;99.90;;;;;;5008904;28;19947;-75
2023/06/04 01:08:38;;;;;;;;;;;13.70;99.90;;;;;;5010732;28;19926;-75
2023/06/04 01:11:04;;;;;;;;;;;13.50;99.90;;;;;;5004168;28;19929;-75
2023/06/04 01:13:33;;;;;;;;;;;13.20;99.90;;;;;;5007140;28;19931;-75
2023/06/04 01:16:00;;;;;;;;;;;13.10;99.90;;;;;;5005144;28;19932;-74
2023/06/04 01:18:28;;;;;;;;;;;12.90;99.90;;;;;;5001992;28;19929;-75
2023/06/04 01:20:58;;;;;;;;;;;12.70;99.90;;;;;;5031489;28;19949;-74
2023/06/04 01:23:34;;;;;;;;;;;12.60;99.90;;;;;;5025652;28;19925;-74
2023/06/04 01:26:03;;;;;;;;;;;12.50;99.90;;;;;;5006895;28;19948;-75
2023/06/04 01:28:30;;;;;;;;;;;12.40;99.90;;;;;;5004262;28;19960;-74
2023/06/04 01:30:59;;;;;;;;;;;12.30;99.90;;;;;;5011472;28;19933;-74
2023/06/04 01:33:28;;;;;;;;;;;12.30;99.90;;;;;;5008500;28;19960;-74
2023/06/04 01:35:55;;;;;;;;;;;12.20;99.90;;;;;;5013620;28;19955;-75
2023/06/04 01:38:22;;;;;;;;;;;12.10;99.90;;;;;;5010048;28;19929;-75
2023/06/04 01:40:50;;;;;;;;;;;12.00;99.90;;;;;;5008529;28;19930;-74
2023/06/04 01:43:17;;;;;;;;;;;12.00;99.90;;;;;;5009258;28;19926;-74
2023/06/04 01:45:44;;;;;;;;;;;11.90;99.90;;;;;;5005522;28;20375;-75
2023/06/04 01:48:12;;;;;;;;;;;11.90;99.90;;;;;;5020526;28;19925;-74
2023/06/04 01:50:39;;;;;;;;;;;11.90;99.90;;;;;;5026644;28;19925;-74
2023/06/04 01:53:07;;;;;;;;;;;12.00;99.90;;;;;;5001457;28;19932;-74
2023/06/04 01:55:34;;;;;;;;;;;12.00;99.90;;;;;;5006921;28;20481;-74
2023/06/04 01:58:01;;;;;;;;;;;12.10;99.90;;;;;;5007234;28;19932;-75
2023/06/04 02:00:28;;;;;;;;;;;12.10;99.90;;;;;;5007161;28;19925;-74
2023/06/04 02:02:55;;;;;;;;;;;12.00;99.90;;;;;;5001330;28;19925;-75
2023/06/04 02:05:24;;;;;;;;;;;12.00;99.90;;;;;;5005568;28;19925;-74
2023/06/04 02:07:51;;;;;;;;;;;12.00;99.90;;;;;;4998319;28;19933;-75
2023/06/04 02:10:19;;;;;;;;;;;12.00;99.90;;;;;;5005030;28;19925;-74
2023/06/04 02:12:54;;;;;;;;;;;12.00;99.90;;;;;;5028314;28;19925;-74
2023/06/04 02:15:21;;;;;;;;;;;12.00;99.90;;;;;;5005132;28;19932;-74
2023/06/04 02:17:50;;;;;;;;;;;11.90;99.90;;;;;;5006313;28;20032;-75
2023/06/04 02:20:17;;;;;;;;;;;11.80;99.90;;;;;;5005680;28;20412;-75
2023/06/04 02:22:45;;;;;;;;;;;11.80;99.90;;;;;;5028649;28;19933;-75
2023/06/04 02:25:12;;;;;;;;;;;11.80;99.90;;;;;;5004579;28;19925;-74
2023/06/04 02:27:38;;;;;;;;;;;11.80;99.90;;;;;;5005186;28;19925;-75
2023/06/04 02:30:06;;;;;;;;;;;11.80;99.90;;;;;;5011806;28;19925;-74
2023/06/04 02:32:35;;;;;;;;;;;11.80;99.90;;;;;;5020427;28;19925;-74
2023/06/04 02:35:02;;;;;;;;;;;11.80;99.90;;;;;;5020701;28;19929;-75
2023/06/04 02:37:30;;;;;;;;;;;11.70;99.90;;;;;;5009330;28;20327;-74
2023/06/04 02:39:58;;;;;;;;;;;11.70;99.90;;;;;;5025995;28;19984;-74
2023/06/04 02:42:25;;;;;;;;;;;11.70;99.90;;;;;;5014520;28;20017;-75
2023/06/04 02:44:53;;;;;;;;;;;11.70;99.90;;;;;;5003925;28;20319;-74
2023/06/04 02:47:20;;;;;;;;;;;11.70;99.90;;;;;;5010880;28;19932;-74
2023/06/04 02:49:47;;;;;;;;;;;11.70;99.90;;;;;;5008030;28;19929;-74
2023/06/04 02:52:14;;;;;;;;;;;11.60;99.90;;;;;;5013214;28;19925;-74
2023/06/04 02:54:41;;;;;;;;;;;11.60;99.90;;;;;;5006600;28;19925;-74
2023/06/04 02:57:09;;;;;;;;;;;11.60;99.90;;;;;;5011721;28;20012;-74
2023/06/04 02:59:36;;;;;;;;;;;11.60;99.90;;;;;;5011876;28;20011;-74
2023/06/04 03:02:03;;;;;;;;;;;11.60;99.90;;;;;;5011104;28;19928;-74
2023/06/04 03:04:34;;;;;;;;;;;11.60;99.90;;;;;;5011127;28;19925;-74
2023/06/04 03:07:02;;;;;;;;;;;11.60;99.90;;;;;;5025122;28;19925;-74
2023/06/04 03:09:29;;;;;;;;;;;11.60;99.90;;;;;;5012340;28;19941;-75
2023/06/04 03:11:57;;;;;;;;;;;11.70;99.90;;;;;;5002152;28;20344;-74
2023/06/04 03:14:32;;;;;;;;;;;11.70;99.90;;;;;;5006860;28;20315;-74
2023/06/04 03:17:00;;;;;;;;;;;11.60;99.90;;;;;;5011653;28;19925;-74
2023/06/04 03:19:27;;;;;;;;;;;11.60;99.90;;;;;;5007313;28;19925;-74
2023/06/04 03:21:54;;;;;;;;;;;11.50;99.90;;;;;;5007719;28;19933;-74
2023/06/04 03:24:21;;;;;;;;;;;11.50;99.90;;;;;;5008123;28;19925;-74
2023/06/04 03:26:48;;;;;;;;;;;11.50;99.90;;;;;;5004070;28;19932;-74
2023/06/04 03:29:15;;;;;;;;;;;11.50;99.90;;;;;;5008605;28;19926;-74
2023/06/04 03:31:44;;;;;;;;;;;11.50;99.90;;;;;;5011968;28;19957;-75
2023/06/04 03:34:11;;;;;;;;;;;11.40;99.90;;;;;;5006650;28;20402;-74
2023/06/04 03:36:38;;;;;;;;;;;11.30;99.90;;;;;;5007745;28;19926;-74
2023/06/04 03:39:06;;;;;;;;;;;11.30;99.90;;;;;;5007626;28;19925;-74
2023/06/04 03:41:33;;;;;;;;;;;11.30;99.90;;;;;;5012139;28;19976;-74
2023/06/04 03:44:00;;;;;;;;;;;11.30;99.90;;;;;;5009717;28;19925;-74
2023/06/04 03:46:31;;;;;;;;;;;11.30;99.90;;;;;;5010016;28;19929;-74
2023/06/04 03:49:00;;;;;;;;;;;11.30;99.90;;;;;;5007509;28;19932;-74
2023/06/04 03:51:29;;;;;;;;;;;11.30;99.90;;;;;;5006254;28;19948;-73
2023/06/04 03:53:56;;;;;;;;;;;11.30;99.90;;;;;;5010982;28;19933;-74
2023/06/04 03:56:23;;;;;;;;;;;11.30;99.90;;;;;;5012576;28;19925;-74
2023/06/04 03:58:51;;;;;;;;;;;11.30;99.90;;;;;;5013351;28;19925;-74
2023/06/04 04:01:18;;;;;;;;;;;11.20;99.90;;;;;;5006697;28;19953;-74
2023/06/04 04:03:49;;;;;;;;;;;11.20;99.90;;;;;;5006197;28;19931;-74
2023/06/04 04:06:18;;;;;;;;;;;11.20;99.90;;;;;;5014190;28;19974;-74
2023/06/04 04:08:45;;;;;;;;;;;11.30;99.90;;;;;;5008253;28;19932;-74
2023/06/04 04:11:14;;;;;;;;;;;11.30;99.90;;;;;;5010461;28;20429;-74
2023/06/04 04:13:41;;;;;;;;;;;11.30;99.90;;;;;;5007048;28;19932;-74
2023/06/04 04:16:10;;;;;;;;;;;11.30;99.90;;;;;;5009677;28;20384;-74
2023/06/04 04:18:37;;;;;;;;;;;11.30;99.90;;;;;;5010916;28;19932;-75
2023/06/04 04:21:05;;;;;;;;;;;11.30;99.90;;;;;;5009194;28;19929;-74
2023/06/04 04:23:35;;;;;;;;;;;11.40;99.90;;;;;;5008854;28;20141;-74
2023/06/04 04:26:02;;;;;;;;;;;11.40;99.90;;;;;;5011790;28;19931;-74
2023/06/04 04:28:30;;;;;;;;;;;11.50;99.90;;;;;;5007188;28;19944;-74
2023/06/04 04:30:59;;;;;;;;;;;11.50;99.90;;;;;;5008399;28;20431;-74
2023/06/04 04:33:26;;;;;;;;;;;11.60;99.90;;;;;;5006072;28;19925;-75
2023/06/04 04:35:53;;;;;;;;;;;11.60;99.90;;;;;;5010078;28;19932;-74
2023/06/04 04:38:23;;;;;;;;;;;11.60;99.90;;;;;;5007540;28;19925;-75
2023/06/04 04:40:57;;;;;;;;;;;11.70;99.90;;;;;;5010449;28;19936;-74
2023/06/04 04:43:30;;;;;;;;;;;11.70;99.90;;;;;;5002502;28;19925;-74
2023/06/04 04:45:58;;;;;;;;;;;11.70;99.90;;;;;;5010831;28;19929;-75
2023/06/04 04:48:25;;;;;;;;;;;11.70;99.90;;;;;;5002131;28;20372;-74
2023/06/04 04:50:52;;;;;;;;;;;11.70;99.90;;;;;;5003064;28;19932;-74
2023/06/04 04:53:19;;;;;;;;;;;11.70;99.90;;;;;;5012510;28;20348;-75
2023/06/04 04:55:46;;;;;;;;;;;11.70;99.90;;;;;;5009954;28;19925;-73
2023/06/04 04:58:14;;;;;;;;;;;11.80;99.90;;;;;;5003051;28;19925;-74
2023/06/04 05:00:41;;;;;;;;;;;11.80;99.90;;;;;;5009968;28;19983;-74
2023/06/04 05:03:08;;;;;;;;;;;11.80;99.90;;;;;;5007120;28;20390;-74
2023/06/04 05:05:35;;;;;;;;;;;11.90;99.90;;;;;;5005833;28;19937;-74
2023/06/04 05:08:05;;;;;;;;;;;11.90;99.90;;;;;;5030907;28;20007;-75
2023/06/04 05:10:36;;;;;;;;;;;11.90;99.90;;;;;;5006673;28;20352;-75
2023/06/04 05:13:04;;;;;;;;;;;12.00;99.90;;;;;;5011286;28;19975;-74
2023/06/04 05:15:42;;;;;;;;;;;12.00;99.90;;;;;;5002972;28;19932;-74
2023/06/04 05:18:09;;;;;;;;;;;12.10;99.90;;;;;;5005759;28;19932;-74
2023/06/04 05:20:38;;;;;;;;;;;12.10;99.90;;;;;;5006466;28;19925;-77
2023/06/04 05:23:07;;;;;;;;;;;12.20;99.90;;;;;;5010031;28;20436;-75
2023/06/04 05:25:34;;;;;;;;;;;12.20;99.90;;;;;;5007942;28;19925;-75
2023/06/04 05:28:05;;;;;;;;;;;12.30;99.90;;;;;;5002218;28;19976;-75
2023/06/04 05:30:33;;;;;;;;;;;12.40;99.90;;;;;;5010196;28;20494;-74
2023/06/04 05:33:01;;;;;;;;;;;12.40;99.90;;;;;;5014391;28;19926;-75
2023/06/04 05:35:29;;;;;;;;;;;12.50;99.90;;;;;;5009839;28;19932;-75
2023/06/04 05:37:56;;;;;;;;;;;12.50;99.90;;;;;;5006139;28;19925;-75
2023/06/04 05:40:28;;;;;;;;;;;12.60;99.90;;;;;;5009026;28;20372;-76
2023/06/04 05:42:55;;;;;;;;;;;12.70;99.90;;;;;;5006357;28;19952;-75
2023/06/04 05:45:22;;;;;;;;;;;12.70;99.90;;;;;;5010133;28;19925;-75
2023/06/04 05:47:49;;;;;;;;;;;12.70;99.90;;;;;;5007923;28;19932;-75
2023/06/04 05:50:17;;;;;;;;;;;12.90;99.90;;;;;;5012019;28;20307;-75
2023/06/04 05:52:44;;;;;;;;;;;12.90;99.90;;;;;;5027857;28;19925;-75
2023/06/04 05:55:14;;;;;;;;;;;12.90;99.90;;;;;;5006795;28;19948;-75
2023/06/04 05:57:41;;;;;;;;;;;13.00;99.90;;;;;;5003783;28;20406;-75
2023/06/04 06:00:10;;;;;;;;;;;13.10;99.90;;;;;;5010158;28;19971;-75
2023/06/04 06:02:41;;;;;;;;;;;13.10;99.90;;;;;;5032818;28;19925;-75
2023/06/04 06:05:18;;;;;;;;;;;13.20;99.90;;;;;;5014581;28;19971;-75
2023/06/04 06:07:45;;;;;;;;;;;13.30;99.90;;;;;;5016317;28;19925;-76
2023/06/04 06:10:12;;;;;;;;;;;13.30;99.90;;;;;;5009127;28;20012;-75
2023/06/04 06:12:40;;;;;;;;;;;13.40;99.90;;;;;;5018019;28;19932;-75
2023/06/04 06:15:07;;;;;;;;;;;13.50;99.90;;;;;;5017911;28;19941;-75
2023/06/04 06:17:35;;;;;;;;;;;13.60;99.90;;;;;;5012613;28;19961;-75
2023/06/04 06:20:05;;;;;;;;;;;13.70;99.90;;;;;;5012058;28;19943;-74
2023/06/04 06:22:34;;;;;;;;;;;13.90;99.90;;;;;;5014069;28;19929;-76
2023/06/04 06:25:02;;;;;;;;;;;14.00;99.90;;;;;;5004120;28;19947;-76
2023/06/04 06:27:29;;;;;;;;;;;14.10;99.90;;;;;;5012853;28;19925;-76
2023/06/04 06:29:56;;;;;;;;;;;14.20;99.90;;;;;;5005065;28;20320;-76
2023/06/04 06:32:23;;;;;;;;;;;14.40;99.90;;;;;;5011136;28;19979;-76
2023/06/04 06:34:50;;;;;;;;;;;14.50;99.90;;;;;;5012026;28;19987;-76
2023/06/04 06:37:17;;;;;;;;;;;14.50;99.90;;;;;;5007875;28;20392;-76
2023/06/04 06:39:45;;;;;;;;;;;14.70;99.90;;;;;;5012641;28;20396;-76
2023/06/04 06:42:12;;;;;;;;;;;14.80;99.90;;;;;;5004776;28;20352;-76
2023/06/04 06:44:43;;;;;;;;;;;14.90;99.90;;;;;;5010054;28;19931;-77
2023/06/04 06:47:10;;;;;;;;;;;14.90;99.90;;;;;;5010636;28;19925;-76
2023/06/04 06:49:37;;;;;;;;;;;14.90;99.90;;;;;;5011789;28;20020;-75
2023/06/04 06:52:04;;;;;;;;;;;14.90;99.90;;;;;;5007864;28;19926;-76
2023/06/04 06:54:30;;;;;;;;;;;15.00;99.90;;;;;;5009161;28;19925;-76
2023/06/04 06:56:59;;;;;;;;;;;15.20;99.90;;;;;;5007270;28;19926;-76
2023/06/04 06:59:26;;;;;;;;;;;15.30;99.90;;;;;;5031753;28;19925;-76
2023/06/04 07:01:53;;;;;;;;;;;15.40;99.90;;;;;;5006626;28;19925;-76
2023/06/04 07:04:20;;;;;;;;;;;15.50;99.90;;;;;;5010912;28;19929;-76
2023/06/04 07:06:47;;;;;;;;;;;15.60;99.90;;;;;;5008526;28;19926;-75
2023/06/04 07:09:14;;;;;;;;;;;15.60;99.90;;;;;;5012332;28;19929;-76
2023/06/04 07:11:41;;;;;;;;;;;15.60;99.90;;;;;;5010401;28;19925;-75
2023/06/04 07:14:09;;;;;;;;;;;15.70;99.90;;;;;;5024292;28;19925;-76
2023/06/04 07:16:36;;;;;;;;;;;15.70;99.90;;;;;;5014596;28;19926;-76
2023/06/04 07:19:03;;;;;;;;;;;15.80;99.90;;;;;;5009645;28;19926;-76
2023/06/04 07:21:30;;;;;;;;;;;16.00;99.90;;;;;;5008746;28;19925;-74
2023/06/04 07:23:57;;;;;;;;;;;16.10;99.90;;;;;;5011345;28;19929;-75
2023/06/04 07:26:25;;;;;;;;;;;16.10;99.90;;;;;;5007799;28;19925;-75
2023/06/04 07:28:52;;;;;;;;;;;16.20;99.90;;;;;;5012180;28;20338;-74
2023/06/04 07:31:21;;;;;;;;;;;16.30;99.90;;;;;;5016021;28;20043;-74
2023/06/04 07:33:48;;;;;;;;;;;16.40;99.90;;;;;;5024019;28;19926;-74
2023/06/04 07:36:15;;;;;;;;;;;16.40;99.90;;;;;;5015650;28;19925;-73
2023/06/04 07:38:42;;;;;;;;;;;16.60;99.90;;;;;;5013881;28;19932;-74
2023/06/04 07:41:09;;;;;;;;;;;16.70;99.90;;;;;;5013940;28;20430;-75
2023/06/04 07:43:36;;;;;;;;;;;16.90;99.90;;;;;;5008154;28;19925;-71
2023/06/04 07:46:03;;;;;;;;;;;16.90;99.90;;;;;;5010895;28;19925;-73
2023/06/04 07:48:32;;;;;;;;;;;17.00;99.90;;;;;;5011143;28;20296;-73
2023/06/04 07:50:59;;;;;;;;;;;17.00;99.90;;;;;;5002073;28;20364;-71
2023/06/04 07:53:26;;;;;;;;;;;17.10;99.90;;;;;;5010756;28;19933;-74
2023/06/04 07:55:53;;;;;;;;;;;17.20;99.90;;;;;;5011453;28;20024;-71
2023/06/04 07:58:20;;;;;;;;;;;17.30;99.90;;;;;;5011834;28;19933;-73
2023/06/04 08:00:47;;;;;;;;;;;17.40;99.90;;;;;;5010515;28;19929;-72
2023/06/04 08:03:15;;;;;;;;;;;17.50;99.90;;;;;;5011993;28;19933;-70
2023/06/04 08:05:43;;;;;;;;;;;17.60;99.90;;;;;;5010448;28;20372;-75
2023/06/04 08:08:10;;;;;;;;;;;17.70;99.90;;;;;;5011910;28;19925;-76
2023/06/04 08:10:36;;;;;;;;;;;17.80;99.90;;;;;;5014351;28;19932;-75
2023/06/04 08:13:03;;;;;;;;;;;17.90;99.90;;;;;;5006295;28;20332;-76
2023/06/04 08:15:30;;;;;;;;;;;18.00;99.90;;;;;;5013269;28;19925;-78
2023/06/04 08:17:57;;;;;;;;;;;18.00;99.90;;;;;;5012811;28;19979;-77
2023/06/04 08:20:24;;;;;;;;;;;18.20;99.90;;;;;;5009304;28;19925;-78
2023/06/04 08:22:52;;;;;;;;;;;18.30;99.90;;;;;;5029362;28;19932;-74
2023/06/04 08:25:19;;;;;;;;;;;18.30;99.90;;;;;;5011620;28;19929;-76
2023/06/04 08:27:45;;;;;;;;;;;18.50;99.90;;;;;;5004890;28;19982;-76
2023/06/04 08:30:12;;;;;;;;;;;18.50;99.90;;;;;;5009340;28;19976;-77
2023/06/04 08:32:40;;;;;;;;;;;18.70;99.90;;;;;;5009093;28;20422;-77
2023/06/04 08:35:07;;;;;;;;;;;18.80;99.90;;;;;;5009054;28;19972;-77
2023/06/04 08:37:34;;;;;;;;;;;18.90;99.90;;;;;;5010361;28;19925;-77
2023/06/04 08:40:05;;;;;;;;;;;19.00;99.90;;;;;;5005807;28;19971;-76
2023/06/04 08:42:32;;;;;;;;;;;19.10;99.90;;;;;;5010826;28;20359;-76
2023/06/04 08:44:59;;;;;;;;;;;19.20;99.90;;;;;;5013324;28;19932;-76
2023/06/04 08:47:26;;;;;;;;;;;19.30;99.90;;;;;;5010314;28;20694;-76
2023/06/04 08:49:55;;;;;;;;;;;19.40;99.90;;;;;;5011044;28;19973;-76
2023/06/04 08:52:22;;;;;;;;;;;19.50;99.90;;;;;;5006341;28;20020;-77
2023/06/04 08:54:49;;;;;;;;;;;19.70;99.90;;;;;;5010557;28;19925;-76
2023/06/04 08:57:17;;;;;;;;;;;19.70;99.90;;;;;;5009918;28;19925;-76
2023/06/04 08:59:45;;;;;;;;;;;19.90;99.90;;;;;;5004611;28;19925;-76
2023/06/04 09:02:13;;;;;;;;;;;19.80;99.90;;;;;;5010788;28;19932;-76
2023/06/04 09:04:39;;;;;;;;;;;19.80;99.90;;;;;;5010525;28;19925;-76
2023/06/04 09:07:07;;;;;;;;;;;19.80;99.90;;;;;;5009121;28;19925;-76
2023/06/04 09:09:36;;;;;;;;;;;20.00;99.90;;;;;;5009800;28;19937;-77
2023/06/04 09:12:04;;;;;;;;;;;20.20;99.90;;;;;;5011198;28;20343;-77
2023/06/04 09:14:32;;;;;;;;;;;20.30;99.90;;;;;;5013122;28;19977;-77
2023/06/04 09:16:59;;;;;;;;;;;20.40;99.90;;;;;;5014274;28;19929;-76
2023/06/04 09:19:26;;;;;;;;;;;20.50;99.90;;;;;;5018975;28;20020;-77
2023/06/04 09:21:54;;;;;;;;;;;20.60;99.90;;;;;;5006472;28;19929;-75
2023/06/04 09:24:21;;;;;;;;;;;20.70;99.90;;;;;;4999846;28;20443;-77
2023/06/04 09:26:48;;;;;;;;;;;20.70;99.90;;;;;;5022138;28;20481;-77
2023/06/04 09:29:15;;;;;;;;;;;20.90;99.90;;;;;;5009631;28;19926;-77
2023/06/04 09:31:45;;;;;;;;;;;21.00;99.90;;;;;;5009946;28;19925;-77
2023/06/04 09:34:11;;;;;;;;;;;21.00;99.90;;;;;;5008218;28;19925;-76
2023/06/04 09:36:38;;;;;;;;;;;21.10;99.90;;;;;;5022676;28;19932;-77
2023/06/04 09:39:15;;;;;;;;;;;21.20;99.90;;;;;;5025313;28;20388;-78
2023/06/04 09:41:41;;;;;;;;;;;21.30;99.90;;;;;;5007774;28;19925;-78
2023/06/04 09:44:10;;;;;;;;;;;21.40;99.90;;;;;;5010623;28;19932;-75
2023/06/04 09:46:37;;;;;;;;;;;21.50;99.90;;;;;;5006741;28;20408;-74
2023/06/04 09:49:06;;;;;;;;;;;21.50;99.90;;;;;;5014274;28;19926;-76
2023/06/04 09:51:33;;;;;;;;;;;21.50;99.90;;;;;;5005672;28;19925;-73
2023/06/04 09:54:01;;;;;;;;;;;21.70;99.90;;;;;;5009222;28;19956;-77
2023/06/04 09:56:28;;;;;;;;;;;21.80;99.90;;;;;;5007334;28;19936;-74
2023/06/04 09:58:55;;;;;;;;;;;21.90;99.90;;;;;;5008385;28;20024;-77
2023/06/04 10:01:23;;;;;;;;;;;22.00;99.90;;;;;;5003021;28;20488;-77
2023/06/04 10:03:51;;;;;;;;;;;22.10;99.90;;;;;;5026674;28;20019;-77
2023/06/04 10:06:21;;;;;;;;;;;22.20;99.90;;;;;;5009920;28;19975;-77
2023/06/04 10:08:49;;;;;;;;;;;22.20;99.90;;;;;;5006099;28;20369;-77
2023/06/04 10:11:18;;;;;;;;;;;22.30;99.90;;;;;;5009169;28;19932;-77
2023/06/04 10:13:48;;;;;;;;;;;22.40;99.90;;;;;;5005274;28;19925;-77
2023/06/04 10:16:15;;;;;;;;;;;22.40;99.90;;;;;;5004731;28;19929;-77
2023/06/04 10:18:42;;;;;;;;;;;22.50;99.90;;;;;;5005471;28;19925;-77
2023/06/04 10:21:10;;;;;;;;;;;22.50;99.90;;;;;;5000282;28;19980;-77
2023/06/04 10:23:38;;;;;;;;;;;22.50;99.90;;;;;;5009293;28;19937;-76
2023/06/04 10:26:05;;;;;;;;;;;22.70;99.90;;;;;;5029290;28;19925;-77
2023/06/04 10:28:33;;;;;;;;;;;22.80;99.90;;;;;;5013641;28;19933;-77
2023/06/04 10:31:00;;;;;;;;;;;22.90;99.90;;;;;;5007019;28;19932;-77
2023/06/04 10:33:28;;;;;;;;;;;22.90;99.90;;;;;;5003169;28;19956;-76
2023/06/04 10:35:55;;;;;;;;;;;23.00;99.90;;;;;;5010130;28;19964;-75
2023/06/04 10:38:22;;;;;;;;;;;23.10;99.90;;;;;;5004140;28;19933;-74
2023/06/04 10:40:51;;;;;;;;;;;23.20;99.90;;;;;;5002027;28;19925;-72
2023/06/04 10:43:18;;;;;;;;;;;23.30;99.90;;;;;;5012614;28;19925;-76
2023/06/04 10:45:45;;;;;;;;;;;23.40;99.90;;;;;;5006965;28;19932;-76
2023/06/04 10:48:13;;;;;;;;;;;23.50;99.90;;;;;;5012553;28;20443;-75
2023/06/04 10:50:49;;;;;;;;;;;23.60;99.90;;;;;;5028356;28;19927;-73
2023/06/04 10:53:16;;;;;;;;;;;23.50;99.90;;;;;;5030267;28;19925;-72
2023/06/04 10:55:44;;;;;;;;;;;23.60;99.90;;;;;;5003385;28;19932;-76
2023/06/04 10:58:13;;;;;;;;;;;23.70;99.90;;;;;;5022887;28;19926;-76
2023/06/04 11:00:40;;;;;;;;;;;23.80;99.90;;;;;;5005641;28;20008;-76
2023/06/04 11:03:08;;;;;;;;;;;24.00;99.90;;;;;;5022411;28;20020;-77
2023/06/04 11:05:35;;;;;;;;;;;24.10;99.90;;;;;;5010428;28;20020;-73
2023/06/04 11:08:02;;;;;;;;;;;24.20;99.90;;;;;;5021369;28;20356;-76
2023/06/04 11:10:32;;;;;;;;;;;24.20;99.90;;;;;;5005918;28;19938;-77
2023/06/04 11:12:59;;;;;;;;;;;24.30;99.90;;;;;;5006132;28;19935;-77
2023/06/04 11:15:27;;;;;;;;;;;24.40;99.90;;;;;;5004330;28;19925;-77
2023/06/04 11:17:55;;;;;;;;;;;24.70;99.90;;;;;;5007226;28;19925;-77
2023/06/04 11:20:23;;;;;;;;;;;24.90;99.90;;;;;;5015629;28;19961;-77
2023/06/04 11:22:53;;;;;;;;;;;25.00;99.90;;;;;;5005063;28;19926;-77
2023/06/04 11:25:22;;;;;;;;;;;25.10;99.90;;;;;;5006990;28;19932;-77
2023/06/04 11:27:48;;;;;;;;;;;25.30;99.90;;;;;;5004928;28;19936;-76
2023/06/04 11:30:16;;;;;;;;;;;25.40;99.90;;;;;;5008311;28;19932;-76
2023/06/04 11:32:44;;;;;;;;;;;25.50;99.90;;;;;;5011635;28;20479;-76
2023/06/04 11:35:11;;;;;;;;;;;25.50;99.90;;;;;;5017550;28;19925;-75
2023/06/04 11:37:39;;;;;;;;;;;26.30;99.90;;;;;;5017010;28;20024;-77
2023/06/04 11:40:15;;;;;;;;;;;27.40;99.90;;;;;;5017012;28;19925;-73
2023/06/04 11:42:43;;;;;;;;;;;28.50;99.90;;;;;;5011525;28;19937;-78
2023/06/04 11:45:10;;;;;;;;;;;29.40;99.90;;;;;;5013490;28;20011;-77
2023/06/04 11:47:37;;;;;;;;;;;30.00;99.90;;;;;;5034072;28;19925;-73
2023/06/04 11:50:07;;;;;;;;;;;30.90;99.90;;;;;;5011455;28;19964;-72
2023/06/04 11:52:34;;;;;;;;;;;30.90;99.90;;;;;;5017603;28;19925;-73
2023/06/04 11:55:01;;;;;;;;;;;;;;;;;;5016959;28;19925;-74
2023/06/04 11:57:28;;;;;;;;;;;31.30;99.90;;;;;;5012250;28;19925;-75
2023/06/04 11:59:55;;;;;;;;;;;31.00;99.90;;;;;;5014929;28;19928;-77
2023/06/04 12:02:22;;;;;;;;;;;31.80;99.90;;;;;;5016939;28;19925;-77
2023/06/04 12:04:49;;;;;;;;;;;31.90;99.90;;;;;;5006718;28;19929;-78
2023/06/04 12:07:20;;;;;;;;;;;32.40;99.30;;;;;;5024503;28;20399;-78
2023/06/04 12:09:47;;;;;;;;;;;33.00;99.80;;;;;;5012055;28;20285;-78
2023/06/04 12:12:15;;;;;;;;;;;34.10;99.90;;;;;;5008703;28;19979;-78
2023/06/04 12:14:44;;;;;;;;;;;34.30;98.90;;;;;;5004661;28;19955;-78
2023/06/04 12:17:11;;;;;;;;;;;34.80;98.50;;;;;;5004132;28;19975;-78
2023/06/04 12:19:46;;;;;;;;;;;35.10;99.10;;;;;;5014140;28;19933;-77
2023/06/04 12:22:13;;;;;;;;;;;34.80;98.30;;;;;;5014747;28;19926;-77
2023/06/04 12:24:48;;;;;;;;;;;34.40;98.00;;;;;;5026633;28;19929;-77
2023/06/04 12:27:15;;;;;;;;;;;33.80;97.90;;;;;;5017680;28;19925;-75
2023/06/04 12:29:42;;;;;;;;;;;32.80;97.80;;;;;;5012296;28;19929;-75
2023/06/04 12:32:11;;;;;;;;;;;32.90;98.70;;;;;;5018730;28;19940;-75
2023/06/04 12:34:38;;;;;;;;;;;32.80;98.50;;;;;;5017882;28;20012;-76
2023/06/04 12:37:05;;;;;;;;;;;33.10;98.00;;;;;;5014562;28;19925;-76
2023/06/04 12:39:32;;;;;;;;;;;33.30;97.70;;;;;;5013718;28;19933;-76
2023/06/04 12:42:00;;;;;;;;;;;34.20;97.20;;;;;;5009763;28;19929;-76
2023/06/04 12:44:27;;;;;;;;;;;34.70;97.50;;;;;;5013768;28;19925;-76
2023/06/04 12:46:54;;;;;;;;;;;35.40;98.00;;;;;;5007764;28;19925;-76
2023/06/04 12:49:21;;;;;;;;;;;36.00;97.60;;;;;;5012524;28;20380;-77
2023/06/04 12:51:48;;;;;;;;;;;36.30;97.40;;;;;;5013273;28;19925;-76
2023/06/04 12:54:15;;;;;;;;;;;36.60;96.70;;;;;;5010789;28;19956;-75
2023/06/04 12:56:41;;;;;;;;;;;37.20;96.00;;;;;;5011628;28;19925;-77
2023/06/04 12:59:10;;;;;;;;;;;36.10;95.30;;;;;;5007802;28;19991;-77
2023/06/04 13:01:37;;;;;;;;;;;36.00;95.70;;;;;;5015121;28;19929;-77
2023/06/04 13:04:04;;;;;;;;;;;35.00;95.60;;;;;;5007553;28;19926;-76
2023/06/04 13:06:30;;;;;;;;;;;35.00;96.10;;;;;;5013816;28;20457;-77
2023/06/04 13:08:57;;;;;;;;;;;35.90;95.50;;;;;;5009321;28;19975;-76
2023/06/04 13:11:24;;;;;;;;;;;36.50;95.20;;;;;;5011612;28;20384;-77
2023/06/04 13:13:51;;;;;;;;;;;36.20;94.40;;;;;;5012287;28;19929;-76
2023/06/04 13:16:19;;;;;;;;;;;36.50;94.20;;;;;;5005988;28;19926;-77
2023/06/04 13:18:46;;;;;;;;;;;36.40;95.20;;;;;;5007090;28;20384;-76
2023/06/04 13:21:13;;;;;;;;;;;37.00;94.50;;;;;;5007020;28;19925;-76
2023/06/04 13:23:40;;;;;;;;;;;37.20;94.20;;;;;;5004813;28;19929;-76
2023/06/04 13:26:06;;;;;;;;;;;36.80;94.70;;;;;;5007605;28;19932;-76
2023/06/04 13:28:33;;;;;;;;;;;36.30;94.20;;;;;;5011866;28;19933;-76
2023/06/04 13:31:02;;;;;;;;;;;35.70;93.90;;;;;;5004695;28;21436;-76
2023/06/04 13:33:30;;;;;;;;;;;35.70;94.10;;;;;;4999880;28;20359;-76
2023/06/04 13:35:57;;;;;;;;;;;35.80;94.00;;;;;;5007356;28;19931;-76
2023/06/04 13:38:24;;;;;;;;;;;35.30;94.10;;;;;;5010344;28;20339;-76
2023/06/04 13:40:51;;;;;;;;;;;35.10;94.00;;;;;;5009643;28;19933;-76
2023/06/04 13:43:17;;;;;;;;;;;35.30;94.20;;;;;;5009898;28;20293;-75
2023/06/04 13:45:45;;;;;;;;;;;35.50;94.40;;;;;;5000355;28;19933;-74
2023/06/04 13:48:12;;;;;;;;;;;35.30;93.80;;;;;;5009015;28;20016;-76
2023/06/04 13:50:41;;;;;;;;;;;35.00;93.50;;;;;;5010421;28;19925;-76
2023/06/04 13:53:08;;;;;;;;;;;34.80;93.80;;;;;;5007420;28;20389;-75
2023/06/04 13:55:35;;;;;;;;;;;35.10;94.60;;;;;;5009536;28;19925;-76
2023/06/04 13:58:02;;;;;;;;;;;36.00;94.40;;;;;;5007608;28;19952;-76
2023/06/04 14:00:30;;;;;;;;;;;36.60;94.20;;;;;;5009594;28;19931;-75
2023/06/04 14:02:57;;;;;;;;;;;37.00;93.90;;;;;;5009749;28;19931;-75
2023/06/04 14:05:27;;;;;;;;;;;37.30;93.40;;;;;;5009766;28;19925;-75
2023/06/04 14:07:56;;;;;;;;;;;37.60;93.50;;;;;;5008831;28;19925;-75
2023/06/04 14:10:22;;;;;;;;;;;37.90;93.50;;;;;;5008545;28;19925;-75
2023/06/04 14:12:49;;;;;;;;;;;37.50;93.50;;;;;;5009568;28;19976;-75
2023/06/04 14:15:16;;;;;;;;;;;35.20;92.90;;;;;;5006404;28;19983;-75
2023/06/04 14:17:43;;;;;;;;;;;34.10;92.80;;;;;;5008454;28;20331;-75
2023/06/04 14:20:10;;;;;;;;;;;34.70;93.30;;;;;;5007377;28;20355;-75
2023/06/04 14:22:37;;;;;;;;;;;34.10;93.30;;;;;;5009687;28;19932;-75